createdAt,value
2023-01-01T00:00:42.879Z,97363.00
2023-01-01T00:03:09.764Z,97367.00
2023-01-01T00:05:39.537Z,97368.00
2023-01-01T00:08:07.100Z,97375.00
2023-01-01T00:10:34.097Z,97380.00
2023-01-01T00:13:01.136Z,97376.00
2023-01-01T00:15:28.440Z,97391.00
2023-01-01T00:17:55.736Z,97379.00
2023-01-01T00:20:22.810Z,97385.00
2023-01-01T00:22:57.037Z,97379.00
2023-01-01T00:25:25.201Z,97381.00
2023-01-01T00:27:52.357Z,97375.00
2023-01-01T00:30:19.570Z,97379.00
2023-01-01T00:32:55.178Z,97381.00
2023-01-01T00:35:26.040Z,97391.00
2023-01-01T00:37:54.232Z,97383.00
2023-01-01T00:40:21.119Z,97393.00
2023-01-01T00:42:47.972Z,97399.00
2023-01-01T00:45:20.933Z,97389.00
2023-01-01T00:47:49.191Z,97397.00
2023-01-01T00:50:16.165Z,97402.00
2023-01-01T00:52:43.202Z,97402.00
2023-01-01T00:55:11.041Z,97406.00
2023-01-01T00:57:37.962Z,97404.00
2023-01-01T01:00:06.291Z,97414.00
2023-01-01T01:02:33.229Z,97413.00
2023-01-01T01:05:01.388Z,97409.00
2023-01-01T01:07:28.249Z,97415.00
2023-01-01T01:09:55.036Z,97425.00
2023-01-01T01:12:21.840Z,97422.00
2023-01-01T01:14:48.671Z,97407.00
2023-01-01T01:17:15.540Z,97416.00
2023-01-01T01:19:43.399Z,97415.00
2023-01-01T01:22:10.176Z,97414.00
2023-01-01T01:24:36.968Z,97404.00
2023-01-01T01:27:04.011Z,97404.00
2023-01-01T01:29:30.827Z,97405.00
2023-01-01T01:31:59.035Z,97403.00
2023-01-01T01:34:28.395Z,97406.00
2023-01-01T01:36:56.169Z,97398.00
2023-01-01T01:39:23.319Z,97408.00
2023-01-01T01:41:50.130Z,97411.00
2023-01-01T01:44:59.012Z,97408.00
2023-01-01T01:47:36.085Z,97405.00
2023-01-01T01:50:12.567Z,97412.00
2023-01-01T01:52:52.197Z,97404.00
2023-01-01T01:55:19.219Z,97408.00
2023-01-01T01:57:46.119Z,97414.00
2023-01-01T02:00:15.502Z,97413.00
2023-01-01T02:03:08.827Z,97412.00
2023-01-01T02:05:36.553Z,97410.00
2023-01-01T02:08:05.133Z,97414.00
2023-01-01T02:10:32.441Z,97419.00
2023-01-01T02:12:59.756Z,97414.00
2023-01-01T02:15:35.035Z,97431.00
2023-01-01T02:18:11.770Z,97428.00
2023-01-01T02:21:34.150Z,97417.00
2023-01-01T02:24:26.342Z,97409.00
2023-01-01T02:27:18.579Z,97424.00
2023-01-01T02:30:00.319Z,97429.00
2023-01-01T02:32:47.834Z,97434.00
2023-01-01T02:35:38.378Z,97430.00
2023-01-01T02:38:23.589Z,97429.00
2023-01-01T02:40:57.939Z,97435.00
2023-01-01T02:43:25.302Z,97439.00
2023-01-01T02:45:54.321Z,97436.00
2023-01-01T02:48:51.512Z,97429.00
2023-01-01T02:51:45.227Z,97426.00
2023-01-01T02:54:18.147Z,97424.00
2023-01-01T02:56:48.756Z,97421.00
2023-01-01T03:00:03.753Z,97420.00
2023-01-01T03:02:51.116Z,97421.00
2023-01-01T03:06:18.315Z,97426.00
2023-01-01T03:09:12.308Z,97414.00
2023-01-01T03:12:06.097Z,97403.00
2023-01-01T03:15:13.973Z,97404.00
2023-01-01T03:18:05.603Z,97405.00
2023-01-01T03:20:36.642Z,97403.00
2023-01-01T03:23:11.209Z,97410.00
2023-01-01T03:25:46.902Z,97415.00
2023-01-01T03:28:25.736Z,97407.00
2023-01-01T03:30:53.955Z,97408.00
2023-01-01T03:42:00.830Z,97410.00
2023-01-01T03:44:34.544Z,97413.00
2023-01-01T03:47:02.373Z,97413.00
2023-01-01T03:49:30.871Z,97408.00
2023-01-01T03:52:38.976Z,97416.00
2023-01-01T03:55:09.210Z,97412.00
2023-01-01T03:58:27.618Z,97412.00
2023-01-01T04:01:05.033Z,97418.00
2023-01-01T04:03:35.119Z,97413.00
2023-01-01T04:06:03.462Z,97416.00
2023-01-01T04:08:34.094Z,97417.00
2023-01-01T04:11:26.388Z,97411.00
2023-01-01T04:13:53.361Z,97408.00
2023-01-01T04:16:20.305Z,97406.00
2023-01-01T04:18:47.167Z,97409.00
2023-01-01T04:21:14.078Z,97406.00
2023-01-01T04:23:40.918Z,97407.00
2023-01-01T04:26:15.231Z,97413.00
2023-01-01T04:28:42.975Z,97415.00
2023-01-01T04:31:10.387Z,97415.00
2023-01-01T04:33:37.598Z,97419.00
2023-01-01T04:36:10.345Z,97410.00
2023-01-01T04:38:38.392Z,97411.00
2023-01-01T04:41:05.504Z,97410.00
2023-01-01T04:43:32.781Z,97413.00
2023-01-01T04:46:02.733Z,97420.00
2023-01-01T04:48:31.649Z,97421.00
2023-01-01T04:51:02.023Z,97425.00
2023-01-01T04:53:34.725Z,97427.00
2023-01-01T04:56:22.200Z,97439.00
2023-01-01T04:58:49.475Z,97442.00
2023-01-01T05:01:25.943Z,97452.00
2023-01-01T05:03:54.151Z,97449.00
2023-01-01T05:06:21.531Z,97451.00
2023-01-01T05:08:52.282Z,97452.00
2023-01-01T05:11:22.792Z,97455.00
2023-01-01T05:13:53.046Z,97456.00
2023-01-01T05:16:25.168Z,97457.00
2023-01-01T05:18:52.319Z,97463.00
2023-01-01T05:21:25.289Z,97467.00
2023-01-01T05:23:57.335Z,97463.00
2023-01-01T05:26:28.170Z,97468.00
2023-01-01T05:28:56.516Z,97463.00
2023-01-01T05:31:27.397Z,97472.00
2023-01-01T05:33:55.015Z,97475.00
2023-01-01T05:36:25.478Z,97475.00
2023-01-01T05:38:53.342Z,97477.00
2023-01-01T05:41:22.662Z,97477.00
2023-01-01T05:43:50.543Z,97472.00
2023-01-01T05:46:23.785Z,97475.00
2023-01-01T05:48:53.525Z,97486.00
2023-01-01T05:51:22.652Z,97485.00
2023-01-01T05:53:50.028Z,97490.00
2023-01-01T05:56:17.694Z,97481.00
2023-01-01T05:58:45.896Z,97487.00
2023-01-01T06:01:23.904Z,97486.00
2023-01-01T06:03:51.866Z,97500.00
2023-01-01T06:06:21.541Z,97494.00
2023-01-01T06:09:06.774Z,97496.00
2023-01-01T06:11:33.983Z,97497.00
2023-01-01T06:14:01.390Z,97499.00
2023-01-01T06:16:30.202Z,97511.00
2023-01-01T06:18:57.323Z,97497.00
2023-01-01T06:21:27.601Z,97504.00
2023-01-01T06:23:57.826Z,97500.00
2023-01-01T06:26:29.449Z,97510.00
2023-01-01T06:28:56.961Z,97505.00
2023-01-01T06:31:24.581Z,97512.00
2023-01-01T06:33:51.779Z,97520.00
2023-01-01T06:36:22.455Z,97515.00
2023-01-01T06:38:53.125Z,97519.00
2023-01-01T06:41:24.172Z,97524.00
2023-01-01T06:43:51.151Z,97534.00
2023-01-01T06:46:24.957Z,97533.00
2023-01-01T06:48:57.006Z,97539.00
2023-01-01T06:51:27.886Z,97530.00
2023-01-01T06:53:57.687Z,97542.00
2023-01-01T06:56:24.462Z,97539.00
2023-01-01T06:58:51.434Z,97533.00
2023-01-01T07:01:24.455Z,97538.00
2023-01-01T07:03:53.788Z,97546.00
2023-01-01T07:06:21.930Z,97545.00
2023-01-01T07:08:48.962Z,97549.00
2023-01-01T07:11:16.119Z,97555.00
2023-01-01T07:13:42.907Z,97543.00
2023-01-01T07:16:13.035Z,97545.00
2023-01-01T07:18:41.015Z,97557.00
2023-01-01T07:21:37.539Z,97555.00
2023-01-01T07:24:08.968Z,97565.00
2023-01-01T07:26:35.762Z,97570.00
2023-01-01T07:29:07.423Z,97567.00
2023-01-01T07:31:40.911Z,97562.00
2023-01-01T07:34:14.218Z,97555.00
2023-01-01T07:36:41.632Z,97564.00
2023-01-01T07:39:09.145Z,97576.00
2023-01-01T07:41:36.586Z,97580.00
2023-01-01T07:44:03.488Z,97581.00
2023-01-01T07:46:30.442Z,97590.00
2023-01-01T07:48:57.359Z,97594.00
2023-01-01T07:51:24.238Z,97587.00
2023-01-01T07:53:51.124Z,97589.00
2023-01-01T07:56:18.246Z,97607.00
2023-01-01T07:58:45.032Z,97611.00
2023-01-01T08:01:15.174Z,97597.00
2023-01-01T08:03:42.324Z,97603.00
2023-01-01T08:06:11.605Z,97603.00
2023-01-01T08:08:38.650Z,97602.00
2023-01-01T08:11:06.453Z,97599.00
2023-01-01T08:13:33.287Z,97601.00
2023-01-01T08:16:00.234Z,97607.00
2023-01-01T08:18:27.206Z,97598.00
2023-01-01T08:20:54.245Z,97614.00
2023-01-01T08:23:21.216Z,97618.00
2023-01-01T08:25:48.017Z,97622.00
2023-01-01T08:28:14.794Z,97616.00
2023-01-01T08:30:41.800Z,97623.00
2023-01-01T08:33:08.593Z,97620.00
2023-01-01T08:35:40.759Z,97618.00
2023-01-01T08:38:10.284Z,97616.00
2023-01-01T08:40:37.552Z,97621.00
2023-01-01T08:43:04.403Z,97622.00
2023-01-01T08:45:31.292Z,97625.00
2023-01-01T08:47:58.276Z,97619.00
2023-01-01T08:50:25.042Z,97617.00
2023-01-01T08:52:51.823Z,97616.00
2023-01-01T08:55:18.680Z,97609.00
2023-01-01T08:57:45.434Z,97621.00
2023-01-01T09:00:13.598Z,97624.00
2023-01-01T09:02:40.450Z,97623.00
2023-01-01T09:05:08.115Z,97625.00
2023-01-01T09:07:34.938Z,97620.00
2023-01-01T09:10:01.735Z,97629.00
2023-01-01T09:12:28.609Z,97629.00
2023-01-01T09:14:55.388Z,97627.00
2023-01-01T09:17:22.175Z,97631.00
2023-01-01T09:19:48.966Z,97631.00
2023-01-01T09:22:15.780Z,97642.00
2023-01-01T09:24:42.603Z,97646.00
2023-01-01T09:27:09.414Z,97642.00
2023-01-01T09:29:36.602Z,97641.00
2023-01-01T09:32:03.606Z,97650.00
2023-01-01T09:34:30.499Z,97648.00
2023-01-01T09:36:57.268Z,97651.00
2023-01-01T09:39:24.056Z,97644.00
2023-01-01T09:42:23.094Z,97650.00
2023-01-01T09:45:17.267Z,97653.00
2023-01-01T09:47:55.369Z,97648.00
2023-01-01T09:50:35.636Z,97656.00
2023-01-01T09:53:15.555Z,97660.00
2023-01-01T09:55:54.377Z,97653.00
2023-01-01T09:58:41.475Z,97645.00
2023-01-01T10:01:38.801Z,97646.00
2023-01-01T10:04:23.768Z,97650.00
2023-01-01T10:07:39.780Z,97648.00
2023-01-01T10:10:25.612Z,97657.00
2023-01-01T10:13:23.672Z,97662.00
2023-01-01T10:15:59.518Z,97660.00
2023-01-01T10:18:38.771Z,97661.00
2023-01-01T10:21:29.405Z,97672.00
2023-01-01T10:24:01.194Z,97669.00
2023-01-01T10:26:30.413Z,97669.00
2023-01-01T10:29:10.069Z,97670.00
2023-01-01T10:31:42.171Z,97661.00
2023-01-01T10:34:26.647Z,97656.00
2023-01-01T10:36:58.016Z,97650.00
2023-01-01T10:39:25.453Z,97655.00
2023-01-01T10:41:52.527Z,97647.00
2023-01-01T10:44:30.938Z,97655.00
2023-01-01T10:47:01.120Z,97659.00
2023-01-01T10:49:27.958Z,97661.00
2023-01-01T10:51:55.303Z,97663.00
2023-01-01T10:54:32.264Z,97658.00
2023-01-01T10:57:00.675Z,97655.00
2023-01-01T10:59:40.358Z,97652.00
2023-01-01T11:02:28.355Z,97655.00
2023-01-01T11:05:22.386Z,97660.00
2023-01-01T11:07:50.081Z,97659.00
2023-01-01T11:10:26.276Z,97664.00
2023-01-01T11:13:09.820Z,97662.00
2023-01-01T11:15:41.505Z,97661.00
2023-01-01T11:18:20.445Z,97662.00
2023-01-01T11:20:58.325Z,97665.00
2023-01-01T11:23:38.467Z,97653.00
2023-01-01T11:26:17.674Z,97642.00
2023-01-01T11:29:04.179Z,97650.00
2023-01-01T11:31:37.227Z,97644.00
2023-01-01T11:34:04.690Z,97642.00
2023-01-01T11:36:34.640Z,97645.00
2023-01-01T11:39:26.720Z,97643.00
2023-01-01T11:41:56.848Z,97642.00
2023-01-01T11:44:47.892Z,97650.00
2023-01-01T11:47:31.743Z,97653.00
2023-01-01T11:50:32.544Z,97643.00
2023-01-01T11:53:24.788Z,97636.00
2023-01-01T11:56:22.811Z,97646.00
2023-01-01T11:59:00.389Z,97652.00
2023-01-01T12:01:45.725Z,97649.00
2023-01-01T12:04:40.155Z,97648.00
2023-01-01T12:07:14.050Z,97641.00
2023-01-01T12:09:54.537Z,97653.00
2023-01-01T12:12:28.357Z,97641.00
2023-01-01T12:15:21.155Z,97642.00
2023-01-01T12:18:12.404Z,97642.00
2023-01-01T12:21:12.424Z,97647.00
2023-01-01T12:23:40.199Z,97635.00
2023-01-01T12:26:26.149Z,97644.00
2023-01-01T12:29:10.110Z,97646.00
2023-01-01T12:32:01.496Z,97639.00
2023-01-01T12:34:36.915Z,97639.00
2023-01-01T12:37:21.837Z,97637.00
2023-01-01T12:40:00.655Z,97630.00
2023-01-01T12:42:55.380Z,97644.00
2023-01-01T12:46:19.781Z,97630.00
2023-01-01T12:49:11.397Z,97621.00
2023-01-01T12:52:07.219Z,97633.00
2023-01-01T12:55:22.716Z,97618.00
2023-01-01T12:58:30.160Z,97616.00
2023-01-01T13:01:14.774Z,97620.00
2023-01-01T13:04:04.790Z,97617.00
2023-01-01T13:07:03.680Z,97610.00
2023-01-01T13:09:35.983Z,97612.00
2023-01-01T13:12:24.559Z,97608.00
2023-01-01T13:14:52.028Z,97600.00
2023-01-01T13:17:22.304Z,97599.00
2023-01-01T13:19:59.851Z,97597.00
2023-01-01T13:22:26.561Z,97599.00
2023-01-01T13:25:11.701Z,97602.00
2023-01-01T13:27:56.697Z,97595.00
2023-01-01T13:30:38.740Z,97589.00
2023-01-01T13:33:34.485Z,97598.00
2023-01-01T13:36:11.778Z,97602.00
2023-01-01T13:38:56.996Z,97598.00
2023-01-01T13:41:26.989Z,97593.00
2023-01-01T13:44:19.855Z,97590.00
2023-01-01T13:47:46.822Z,97591.00
2023-01-01T13:50:50.429Z,97591.00
2023-01-01T13:53:37.427Z,97591.00
2023-01-01T13:56:28.237Z,97598.00
2023-01-01T13:59:40.523Z,97590.00
2023-01-01T14:02:29.673Z,97589.00
2023-01-01T14:05:27.940Z,97592.00
2023-01-01T14:07:55.837Z,97594.00
2023-01-01T14:10:25.641Z,97593.00
2023-01-01T14:12:54.338Z,97601.00
2023-01-01T14:15:40.575Z,97610.00
2023-01-01T14:18:13.544Z,97618.00
2023-01-01T14:21:00.773Z,97621.00
2023-01-01T14:23:33.228Z,97622.00
2023-01-01T14:26:08.888Z,97621.00
2023-01-01T14:28:36.529Z,97618.00
2023-01-01T14:31:19.237Z,97620.00
2023-01-01T14:33:47.484Z,97622.00
2023-01-01T14:36:20.376Z,97620.00
2023-01-01T14:38:50.704Z,97629.00
2023-01-01T14:41:34.495Z,97629.00
2023-01-01T14:44:13.119Z,97631.00
2023-01-01T14:46:42.515Z,97624.00
2023-01-01T14:49:18.703Z,97624.00
2023-01-01T14:51:52.991Z,97618.00
2023-01-01T14:54:22.835Z,97617.00
2023-01-01T14:56:51.477Z,97618.00
2023-01-01T14:59:24.335Z,97614.00
2023-01-01T15:02:12.331Z,97614.00
2023-01-01T15:04:40.307Z,97618.00
2023-01-01T15:07:27.759Z,97610.00
2023-01-01T15:10:00.297Z,97621.00
2023-01-01T15:12:28.476Z,97622.00
2023-01-01T15:14:56.441Z,97617.00
2023-01-01T15:17:25.898Z,97624.00
2023-01-01T15:20:01.787Z,97624.00
2023-01-01T15:22:33.380Z,97619.00
2023-01-01T15:25:01.291Z,97625.00
2023-01-01T15:27:35.179Z,97628.00
2023-01-01T15:30:09.820Z,97623.00
2023-01-01T15:32:40.611Z,97615.00
2023-01-01T15:35:31.780Z,97621.00
2023-01-01T15:38:24.372Z,97618.00
2023-01-01T15:40:53.854Z,97620.00
2023-01-01T15:43:27.690Z,97613.00
2023-01-01T15:46:16.613Z,97618.00
2023-01-01T15:48:52.797Z,97620.00
2023-01-01T15:51:23.018Z,97616.00
2023-01-01T15:54:01.876Z,97623.00
2023-01-01T15:56:34.145Z,97620.00
2023-01-01T15:59:33.546Z,97613.00
2023-01-01T16:02:14.548Z,97618.00
2023-01-01T16:04:46.922Z,97628.00
2023-01-01T16:07:24.901Z,97620.00
2023-01-01T16:09:57.670Z,97621.00
2023-01-01T16:12:25.267Z,97627.00
2023-01-01T16:14:52.156Z,97616.00
2023-01-01T16:17:21.065Z,97624.00
2023-01-01T16:19:48.439Z,97629.00
2023-01-01T16:22:18.064Z,97627.00
2023-01-01T16:24:45.384Z,97626.00
2023-01-01T16:27:13.064Z,97637.00
2023-01-01T16:29:43.166Z,97628.00
2023-01-01T16:32:19.519Z,97624.00
2023-01-01T16:34:46.289Z,97621.00
2023-01-01T16:37:13.175Z,97627.00
2023-01-01T16:39:39.962Z,97613.00
2023-01-01T16:42:11.218Z,97615.00
2023-01-01T16:44:41.486Z,97606.00
2023-01-01T16:47:08.792Z,97606.00
2023-01-01T16:49:35.619Z,97604.00
2023-01-01T16:52:03.327Z,97610.00
2023-01-01T16:54:30.192Z,97612.00
2023-01-01T16:56:57.029Z,97603.00
2023-01-01T16:59:24.407Z,97612.00
2023-01-01T17:01:51.312Z,97607.00
2023-01-01T17:04:18.231Z,97613.00
2023-01-01T17:06:45.027Z,97614.00
2023-01-01T17:09:11.809Z,97610.00
2023-01-01T17:11:39.986Z,97623.00
2023-01-01T17:14:07.043Z,97627.00
2023-01-01T17:16:39.023Z,97624.00
2023-01-01T17:19:16.294Z,97616.00
2023-01-01T17:21:45.734Z,97619.00
2023-01-01T17:24:13.374Z,97619.00
2023-01-01T17:26:40.218Z,97620.00
2023-01-01T17:29:07.642Z,97617.00
2023-01-01T17:31:35.432Z,97614.00
2023-01-01T17:34:02.382Z,97609.00
2023-01-01T17:36:29.203Z,97606.00
2023-01-01T17:38:56.500Z,97608.00
2023-01-01T17:41:23.866Z,97602.00
2023-01-01T17:43:51.992Z,97606.00
2023-01-01T17:46:21.386Z,97601.00
2023-01-01T17:48:49.532Z,97593.00
2023-01-01T17:51:18.361Z,97592.00
2023-01-01T17:53:45.493Z,97584.00
2023-01-01T17:56:15.524Z,97598.00
2023-01-01T17:58:44.827Z,97594.00
2023-01-01T18:01:26.834Z,97598.00
2023-01-01T18:04:01.334Z,97601.00
2023-01-01T18:06:30.605Z,97599.00
2023-01-01T18:09:03.312Z,97593.00
2023-01-01T18:11:32.079Z,97590.00
2023-01-01T18:14:01.757Z,97589.00
2023-01-01T18:16:29.987Z,97587.00
2023-01-01T18:19:00.907Z,97594.00
2023-01-01T18:21:28.145Z,97597.00
2023-01-01T18:23:56.859Z,97588.00
2023-01-01T18:26:28.527Z,97597.00
2023-01-01T18:29:01.141Z,97586.00
2023-01-01T18:31:31.700Z,97594.00
2023-01-01T18:33:59.513Z,97589.00
2023-01-01T18:36:30.055Z,97587.00
2023-01-01T18:39:04.765Z,97582.00
2023-01-01T18:42:20.403Z,97576.00
2023-01-01T18:44:47.251Z,97573.00
2023-01-01T18:47:17.584Z,97567.00
2023-01-01T18:49:49.341Z,97572.00
2023-01-01T18:52:27.685Z,97571.00
2023-01-01T18:55:13.433Z,97576.00
2023-01-01T18:57:41.715Z,97577.00
2023-01-01T19:00:28.068Z,97570.00
2023-01-01T19:03:03.486Z,97565.00
2023-01-01T19:05:33.717Z,97560.00
2023-01-01T19:08:11.921Z,97565.00
2023-01-01T19:10:56.295Z,97558.00
2023-01-01T19:13:37.886Z,97559.00
2023-01-01T19:16:10.578Z,97558.00
2023-01-01T19:18:40.649Z,97558.00
2023-01-01T19:21:13.648Z,97561.00
2023-01-01T19:23:56.663Z,97554.00
2023-01-01T19:26:36.489Z,97555.00
2023-01-01T19:29:17.208Z,97557.00
2023-01-01T19:31:56.328Z,97556.00
2023-01-01T19:34:24.509Z,97557.00
2023-01-01T19:36:51.665Z,97554.00
2023-01-01T19:39:19.318Z,97539.00
2023-01-01T19:41:46.873Z,97548.00
2023-01-01T19:44:13.698Z,97550.00
2023-01-01T19:46:40.520Z,97553.00
2023-01-01T19:49:07.362Z,97541.00
2023-01-01T19:51:34.192Z,97541.00
2023-01-01T19:54:01.141Z,97534.00
2023-01-01T19:56:27.989Z,97540.00
2023-01-01T19:58:54.771Z,97533.00
2023-01-01T20:01:21.673Z,97540.00
2023-01-01T20:03:54.819Z,97535.00
2023-01-01T20:06:23.470Z,97527.00
2023-01-01T20:08:50.550Z,97529.00
2023-01-01T20:11:17.359Z,97530.00
2023-01-01T20:13:44.150Z,97537.00
2023-01-01T20:16:11.127Z,97524.00
2023-01-01T20:18:38.084Z,97530.00
2023-01-01T20:21:26.595Z,97523.00
2023-01-01T20:23:55.080Z,97534.00
2023-01-01T20:26:23.578Z,97527.00
2023-01-01T20:29:09.267Z,97518.00
2023-01-01T20:31:36.557Z,97526.00
2023-01-01T20:34:03.462Z,97541.00
2023-01-01T20:36:48.882Z,97533.00
2023-01-01T20:39:15.668Z,97541.00
2023-01-01T20:41:42.612Z,97534.00
2023-01-01T20:44:09.465Z,97535.00
2023-01-01T20:46:38.251Z,97537.00
2023-01-01T20:49:05.773Z,97532.00
2023-01-01T20:51:33.210Z,97541.00
2023-01-01T20:54:00.377Z,97539.00
2023-01-01T20:56:27.243Z,97526.00
2023-01-01T20:59:00.066Z,97531.00
2023-01-01T21:01:32.185Z,97535.00
2023-01-01T21:03:59.147Z,97535.00
2023-01-01T21:06:26.016Z,97542.00
2023-01-01T21:08:52.834Z,97542.00
2023-01-01T21:11:19.823Z,97536.00
2023-01-01T21:13:47.502Z,97531.00
2023-01-01T21:16:21.314Z,97531.00
2023-01-01T21:18:50.330Z,97533.00
2023-01-01T21:21:25.425Z,97533.00
2023-01-01T21:24:12.170Z,97528.00
2023-01-01T21:26:38.999Z,97526.00
2023-01-01T21:29:15.552Z,97515.00
2023-01-01T21:31:43.136Z,97513.00
2023-01-01T21:34:24.760Z,97505.00
2023-01-01T21:36:53.349Z,97514.00
2023-01-01T21:39:28.484Z,97512.00
2023-01-01T21:42:09.217Z,97498.00
2023-01-01T21:44:36.056Z,97495.00
2023-01-01T21:47:02.901Z,97493.00
2023-01-01T21:49:36.565Z,97485.00
2023-01-01T21:52:19.824Z,97477.00
2023-01-01T21:54:49.646Z,97479.00
2023-01-01T21:57:22.753Z,97480.00
2023-01-01T21:59:50.978Z,97480.00
2023-01-01T22:02:31.324Z,97478.00
2023-01-01T22:05:02.288Z,97473.00
2023-01-01T22:10:32.057Z,97461.00
2023-01-01T22:13:00.957Z,97459.00
2023-01-01T22:15:27.763Z,97462.00
2023-01-01T22:18:09.808Z,97453.00
2023-01-01T22:20:39.487Z,97461.00
2023-01-01T22:23:40.048Z,97452.00
2023-01-01T22:26:20.565Z,97457.00
2023-01-01T22:28:59.709Z,97458.00
2023-01-01T22:31:33.259Z,97438.00
2023-01-01T22:34:04.413Z,97451.00
2023-01-01T22:36:36.280Z,97448.00
2023-01-01T22:39:13.813Z,97448.00
2023-01-01T22:41:42.243Z,97434.00
2023-01-01T22:44:11.612Z,97434.00
2023-01-01T22:46:40.975Z,97438.00
2023-01-01T22:49:23.286Z,97439.00
2023-01-01T22:51:54.790Z,97433.00
2023-01-01T22:54:21.669Z,97438.00
2023-01-01T22:56:48.516Z,97433.00
2023-01-01T22:59:15.342Z,97433.00
2023-01-01T23:01:42.166Z,97422.00
2023-01-01T23:04:08.983Z,97422.00
2023-01-01T23:06:35.977Z,97418.00
2023-01-01T23:09:02.865Z,97421.00
2023-01-01T23:11:29.775Z,97424.00
2023-01-01T23:14:15.022Z,97412.00
2023-01-01T23:16:41.909Z,97417.00
2023-01-01T23:19:08.719Z,97407.00
2023-01-01T23:21:36.482Z,97413.00
2023-01-01T23:24:06.754Z,97409.00
2023-01-01T23:26:33.871Z,97402.00
2023-01-01T23:29:02.613Z,97403.00
2023-01-01T23:31:30.121Z,97400.00
2023-01-01T23:33:58.247Z,97397.00
2023-01-01T23:36:26.816Z,97402.00
2023-01-01T23:38:54.051Z,97405.00
2023-01-01T23:41:22.352Z,97394.00
2023-01-01T23:43:50.071Z,97402.00
2023-01-01T23:46:18.131Z,97400.00
2023-01-01T23:48:46.436Z,97406.00
2023-01-01T23:51:14.176Z,97390.00
2023-01-01T23:53:40.946Z,97383.00
2023-01-01T23:56:08.146Z,97379.00
2023-01-01T23:58:34.981Z,97390.00
